sensor_id;sensor_type;location;lat;lon;timestamp;temperature;humidity
34574;DHT22;20809;49.594;8.734;2023-06-26T00:02:17;18.60;99.90
34574;DHT22;20809;49.594;8.734;2023-06-26T00:05:20;18.50;99.90
34574;DHT22;20809;49.594;8.734;2023-06-26T00:08:22;18.40;99.90
34574;DHT22;20809;49.594;8.734;2023-06-26T00:11:26;18.40;99.90
34574;DHT22;20809;49.594;8.734;2023-06-26T00:14:29;18.30;99.90
34574;DHT22;20809;49.594;8.734;2023-06-26T00:17:31;18.20;99.90
34574;DHT22;20809;49.594;8.734;2023-06-26T00:20:38;18.20;99.90
34574;DHT22;20809;49.594;8.734;2023-06-26T00:23:41;18.10;99.90
34574;DHT22;20809;49.594;8.734;2023-06-26T00:26:46;18.10;99.90
34574;DHT22;20809;49.594;8.734;2023-06-26T00:29:49;18.10;99.90
34574;DHT22;20809;49.594;8.734;2023-06-26T00:32:54;18.10;99.90
34574;DHT22;20809;49.594;8.734;2023-06-26T00:35:55;18.10;99.90
34574;DHT22;20809;49.594;8.734;2023-06-26T00:38:57;18.00;99.90
34574;DHT22;20809;49.594;8.734;2023-06-26T00:41:59;18.00;99.90
34574;DHT22;20809;49.594;8.734;2023-06-26T00:45:01;18.00;99.90
34574;DHT22;20809;49.594;8.734;2023-06-26T00:48:05;17.90;99.90
34574;DHT22;20809;49.594;8.734;2023-06-26T00:51:08;17.90;99.90
34574;DHT22;20809;49.594;8.734;2023-06-26T00:54:10;17.80;99.90
34574;DHT22;20809;49.594;8.734;2023-06-26T00:59:09;17.80;99.90
34574;DHT22;20809;49.594;8.734;2023-06-26T01:02:11;17.70;99.90
34574;DHT22;20809;49.594;8.734;2023-06-26T01:05:13;17.60;99.90
34574;DHT22;20809;49.594;8.734;2023-06-26T01:08:22;17.60;99.90
34574;DHT22;20809;49.594;8.734;2023-06-26T01:11:25;17.50;99.90
34574;DHT22;20809;49.594;8.734;2023-06-26T01:14:27;17.50;99.90
34574;DHT22;20809;49.594;8.734;2023-06-26T01:17:29;17.50;99.90
34574;DHT22;20809;49.594;8.734;2023-06-26T01:20:38;17.40;99.90
34574;DHT22;20809;49.594;8.734;2023-06-26T01:24:05;17.40;99.90
34574;DHT22;20809;49.594;8.734;2023-06-26T01:27:10;17.30;99.90
34574;DHT22;20809;49.594;8.734;2023-06-26T01:30:13;17.30;99.90
34574;DHT22;20809;49.594;8.734;2023-06-26T01:33:15;17.20;99.90
34574;DHT22;20809;49.594;8.734;2023-06-26T01:36:17;17.20;99.90
34574;DHT22;20809;49.594;8.734;2023-06-26T01:39:22;17.10;99.90
34574;DHT22;20809;49.594;8.734;2023-06-26T01:42:24;17.10;99.90
34574;DHT22;20809;49.594;8.734;2023-06-26T01:45:32;17.10;99.90
34574;DHT22;20809;49.594;8.734;2023-06-26T01:58:37;16.90;99.90
34574;DHT22;20809;49.594;8.734;2023-06-26T02:01:42;16.80;99.90
34574;DHT22;20809;49.594;8.734;2023-06-26T02:04:47;16.80;99.90
34574;DHT22;20809;49.594;8.734;2023-06-26T02:07:49;16.80;99.90
34574;DHT22;20809;49.594;8.734;2023-06-26T02:10:52;16.80;99.90
34574;DHT22;20809;49.594;8.734;2023-06-26T02:13:54;16.70;99.90
34574;DHT22;20809;49.594;8.734;2023-06-26T02:16:56;16.70;99.90
34574;DHT22;20809;49.594;8.734;2023-06-26T02:19:58;16.70;99.90
34574;DHT22;20809;49.594;8.734;2023-06-26T02:22:59;16.70;99.90
34574;DHT22;20809;49.594;8.734;2023-06-26T02:26:01;16.60;99.90
34574;DHT22;20809;49.594;8.734;2023-06-26T02:29:03;16.60;99.90
34574;DHT22;20809;49.594;8.734;2023-06-26T02:32:05;16.60;99.90
34574;DHT22;20809;49.594;8.734;2023-06-26T02:35:08;16.50;99.90
34574;DHT22;20809;49.594;8.734;2023-06-26T02:38:10;16.50;99.90
34574;DHT22;20809;49.594;8.734;2023-06-26T02:41:14;16.50;99.90
34574;DHT22;20809;49.594;8.734;2023-06-26T02:44:15;16.40;99.90
34574;DHT22;20809;49.594;8.734;2023-06-26T02:47:17;16.30;99.90
34574;DHT22;20809;49.594;8.734;2023-06-26T02:50:18;16.30;99.90
34574;DHT22;20809;49.594;8.734;2023-06-26T02:53:19;16.30;99.90
34574;DHT22;20809;49.594;8.734;2023-06-26T02:56:21;16.30;99.90
34574;DHT22;20809;49.594;8.734;2023-06-26T02:59:23;16.30;99.90
34574;DHT22;20809;49.594;8.734;2023-06-26T03:02:24;16.30;99.90
34574;DHT22;20809;49.594;8.734;2023-06-26T03:05:26;16.20;99.90
34574;DHT22;20809;49.594;8.734;2023-06-26T03:08:31;16.20;99.90
34574;DHT22;20809;49.594;8.734;2023-06-26T03:11:33;16.30;99.90
34574;DHT22;20809;49.594;8.734;2023-06-26T03:14:34;16.40;99.90
34574;DHT22;20809;49.594;8.734;2023-06-26T03:17:36;16.40;99.90
34574;DHT22;20809;49.594;8.734;2023-06-26T03:20:40;16.40;99.90
34574;DHT22;20809;49.594;8.734;2023-06-26T03:23:44;16.30;99.90
34574;DHT22;20809;49.594;8.734;2023-06-26T03:26:46;16.20;99.90
34574;DHT22;20809;49.594;8.734;2023-06-26T03:29:51;16.10;99.90
34574;DHT22;20809;49.594;8.734;2023-06-26T03:32:52;16.10;99.90
34574;DHT22;20809;49.594;8.734;2023-06-26T03:35:55;16.10;99.90
34574;DHT22;20809;49.594;8.734;2023-06-26T03:39:00;16.10;99.90
34574;DHT22;20809;49.594;8.734;2023-06-26T03:42:07;16.10;99.90
34574;DHT22;20809;49.594;8.734;2023-06-26T03:45:09;16.00;99.90
34574;DHT22;20809;49.594;8.734;2023-06-26T03:48:10;16.00;99.90
34574;DHT22;20809;49.594;8.734;2023-06-26T03:51:12;16.00;99.90
34574;DHT22;20809;49.594;8.734;2023-06-26T03:54:16;16.10;99.90
34574;DHT22;20809;49.594;8.734;2023-06-26T03:57:18;16.10;99.90
34574;DHT22;20809;49.594;8.734;2023-06-26T04:00:19;16.20;99.90
34574;DHT22;20809;49.594;8.734;2023-06-26T04:03:20;16.20;99.90
34574;DHT22;20809;49.594;8.734;2023-06-26T04:06:24;16.20;99.90
34574;DHT22;20809;49.594;8.734;2023-06-26T04:09:27;16.30;99.90
34574;DHT22;20809;49.594;8.734;2023-06-26T04:12:28;16.30;99.90
34574;DHT22;20809;49.594;8.734;2023-06-26T04:15:29;16.40;99.90
34574;DHT22;20809;49.594;8.734;2023-06-26T04:18:32;16.50;99.90
34574;DHT22;20809;49.594;8.734;2023-06-26T04:21:33;16.60;99.90
34574;DHT22;20809;49.594;8.734;2023-06-26T04:24:33;16.70;99.90
34574;DHT22;20809;49.594;8.734;2023-06-26T04:27:34;16.80;99.90
34574;DHT22;20809;49.594;8.734;2023-06-26T04:30:35;16.90;99.90
34574;DHT22;20809;49.594;8.734;2023-06-26T04:33:36;17.10;99.90
34574;DHT22;20809;49.594;8.734;2023-06-26T04:36:37;17.10;99.90
34574;DHT22;20809;49.594;8.734;2023-06-26T04:39:40;17.30;99.90
34574;DHT22;20809;49.594;8.734;2023-06-26T04:42:40;17.60;99.90
34574;DHT22;20809;49.594;8.734;2023-06-26T04:45:41;17.90;99.90
34574;DHT22;20809;49.594;8.734;2023-06-26T04:48:45;18.20;99.90
34574;DHT22;20809;49.594;8.734;2023-06-26T04:51:46;18.60;99.90
34574;DHT22;20809;49.594;8.734;2023-06-26T04:54:50;19.50;99.90
34574;DHT22;20809;49.594;8.734;2023-06-26T04:57:51;20.90;99.90
34574;DHT22;20809;49.594;8.734;2023-06-26T05:00:51;21.70;99.90
34574;DHT22;20809;49.594;8.734;2023-06-26T05:03:52;21.90;99.90
34574;DHT22;20809;49.594;8.734;2023-06-26T05:06:53;22.10;99.90
34574;DHT22;20809;49.594;8.734;2023-06-26T05:09:53;22.30;99.90
34574;DHT22;20809;49.594;8.734;2023-06-26T05:12:57;22.70;99.90
34574;DHT22;20809;49.594;8.734;2023-06-26T05:15:57;22.80;99.90
34574;DHT22;20809;49.594;8.734;2023-06-26T05:18:58;22.70;99.90
34574;DHT22;20809;49.594;8.734;2023-06-26T05:22:07;22.70;99.90
34574;DHT22;20809;49.594;8.734;2023-06-26T05:25:09;22.70;99.90
34574;DHT22;20809;49.594;8.734;2023-06-26T05:28:11;22.30;99.90
34574;DHT22;20809;49.594;8.734;2023-06-26T05:31:12;21.70;99.90
34574;DHT22;20809;49.594;8.734;2023-06-26T05:34:13;21.50;99.90
34574;DHT22;20809;49.594;8.734;2023-06-26T05:37:19;21.30;99.90
34574;DHT22;20809;49.594;8.734;2023-06-26T05:40:20;21.10;99.90
34574;DHT22;20809;49.594;8.734;2023-06-26T05:43:21;21.00;99.90
34574;DHT22;20809;49.594;8.734;2023-06-26T05:46:22;21.10;99.90
34574;DHT22;20809;49.594;8.734;2023-06-26T05:49:22;21.20;99.90
34574;DHT22;20809;49.594;8.734;2023-06-26T05:52:23;21.50;99.90
34574;DHT22;20809;49.594;8.734;2023-06-26T05:55:25;21.80;99.90
34574;DHT22;20809;49.594;8.734;2023-06-26T05:58:28;22.10;99.90
34574;DHT22;20809;49.594;8.734;2023-06-26T06:01:30;22.30;99.90
34574;DHT22;20809;49.594;8.734;2023-06-26T06:04:30;22.50;99.90
34574;DHT22;20809;49.594;8.734;2023-06-26T06:07:36;22.60;99.90
34574;DHT22;20809;49.594;8.734;2023-06-26T06:10:37;22.80;99.90
34574;DHT22;20809;49.594;8.734;2023-06-26T06:13:37;23.00;99.90
34574;DHT22;20809;49.594;8.734;2023-06-26T06:16:41;23.30;99.90
34574;DHT22;20809;49.594;8.734;2023-06-26T06:19:44;23.70;99.90
34574;DHT22;20809;49.594;8.734;2023-06-26T06:22:45;24.20;99.90
34574;DHT22;20809;49.594;8.734;2023-06-26T06:25:46;24.40;99.90
34574;DHT22;20809;49.594;8.734;2023-06-26T06:28:46;24.50;99.90
34574;DHT22;20809;49.594;8.734;2023-06-26T06:31:47;24.70;99.90
34574;DHT22;20809;49.594;8.734;2023-06-26T06:34:48;24.80;99.90
34574;DHT22;20809;49.594;8.734;2023-06-26T06:37:48;25.10;99.90
34574;DHT22;20809;49.594;8.734;2023-06-26T06:40:49;25.40;99.90
34574;DHT22;20809;49.594;8.734;2023-06-26T06:43:50;25.60;99.90
34574;DHT22;20809;49.594;8.734;2023-06-26T06:46:50;25.60;99.90
34574;DHT22;20809;49.594;8.734;2023-06-26T06:49:51;25.80;99.90
34574;DHT22;20809;49.594;8.734;2023-06-26T06:52:51;26.00;99.90
34574;DHT22;20809;49.594;8.734;2023-06-26T06:55:52;26.30;99.90
34574;DHT22;20809;49.594;8.734;2023-06-26T06:58:53;26.60;99.90
34574;DHT22;20809;49.594;8.734;2023-06-26T07:01:53;26.80;99.90
34574;DHT22;20809;49.594;8.734;2023-06-26T07:04:54;27.00;99.90
34574;DHT22;20809;49.594;8.734;2023-06-26T07:07:54;27.20;99.90
34574;DHT22;20809;49.594;8.734;2023-06-26T07:10:55;27.40;99.90
34574;DHT22;20809;49.594;8.734;2023-06-26T07:13:57;27.50;99.90
34574;DHT22;20809;49.594;8.734;2023-06-26T07:16:57;27.80;99.90
34574;DHT22;20809;49.594;8.734;2023-06-26T07:19:59;28.30;99.90
34574;DHT22;20809;49.594;8.734;2023-06-26T07:23:00;28.70;99.90
34574;DHT22;20809;49.594;8.734;2023-06-26T07:26:00;28.90;99.90
34574;DHT22;20809;49.594;8.734;2023-06-26T07:29:01;29.10;99.90
34574;DHT22;20809;49.594;8.734;2023-06-26T07:32:02;29.20;99.90
34574;DHT22;20809;49.594;8.734;2023-06-26T07:35:03;29.60;99.90
34574;DHT22;20809;49.594;8.734;2023-06-26T07:38:04;30.10;99.90
34574;DHT22;20809;49.594;8.734;2023-06-26T07:41:04;30.80;99.90
34574;DHT22;20809;49.594;8.734;2023-06-26T07:44:05;31.10;98.10
34574;DHT22;20809;49.594;8.734;2023-06-26T07:47:09;30.90;96.30
34574;DHT22;20809;49.594;8.734;2023-06-26T07:50:10;30.90;96.60
34574;DHT22;20809;49.594;8.734;2023-06-26T07:53:10;30.80;94.30
34574;DHT22;20809;49.594;8.734;2023-06-26T07:56:11;30.50;93.70
34574;DHT22;20809;49.594;8.734;2023-06-26T07:59:12;30.50;93.80
34574;DHT22;20809;49.594;8.734;2023-06-26T08:02:14;30.40;93.70
34574;DHT22;20809;49.594;8.734;2023-06-26T08:05:14;30.60;93.30
34574;DHT22;20809;49.594;8.734;2023-06-26T08:08:15;31.10;92.00
34574;DHT22;20809;49.594;8.734;2023-06-26T08:11:16;31.80;91.50
34574;DHT22;20809;49.594;8.734;2023-06-26T08:14:17;32.20;90.10
34574;DHT22;20809;49.594;8.734;2023-06-26T08:17:17;32.40;89.60
34574;DHT22;20809;49.594;8.734;2023-06-26T08:20:27;32.10;89.00
34574;DHT22;20809;49.594;8.734;2023-06-26T08:23:31;32.40;87.80
34574;DHT22;20809;49.594;8.734;2023-06-26T08:26:31;33.40;88.10
34574;DHT22;20809;49.594;8.734;2023-06-26T08:29:32;33.90;84.70
34574;DHT22;20809;49.594;8.734;2023-06-26T08:32:33;34.10;83.90
34574;DHT22;20809;49.594;8.734;2023-06-26T08:35:33;34.30;82.90
34574;DHT22;20809;49.594;8.734;2023-06-26T08:38:34;34.50;81.10
34574;DHT22;20809;49.594;8.734;2023-06-26T08:41:34;34.40;79.70
34574;DHT22;20809;49.594;8.734;2023-06-26T08:44:37;34.90;80.30
34574;DHT22;20809;49.594;8.734;2023-06-26T08:47:38;35.20;78.80
34574;DHT22;20809;49.594;8.734;2023-06-26T08:50:39;34.70;77.50
34574;DHT22;20809;49.594;8.734;2023-06-26T08:56:49;33.60;80.50
34574;DHT22;20809;49.594;8.734;2023-06-26T08:59:50;33.20;81.40
34574;DHT22;20809;49.594;8.734;2023-06-26T09:02:51;32.90;82.10
34574;DHT22;20809;49.594;8.734;2023-06-26T09:05:52;32.70;83.10
34574;DHT22;20809;49.594;8.734;2023-06-26T09:08:53;33.10;80.50
34574;DHT22;20809;49.594;8.734;2023-06-26T09:11:54;33.80;80.50
34574;DHT22;20809;49.594;8.734;2023-06-26T09:14:58;33.90;79.90
34574;DHT22;20809;49.594;8.734;2023-06-26T09:18:00;34.00;78.40
34574;DHT22;20809;49.594;8.734;2023-06-26T09:21:07;33.50;79.10
34574;DHT22;20809;49.594;8.734;2023-06-26T09:24:09;33.10;80.00
34574;DHT22;20809;49.594;8.734;2023-06-26T09:27:13;33.20;79.70
34574;DHT22;20809;49.594;8.734;2023-06-26T09:30:17;33.00;80.10
34574;DHT22;20809;49.594;8.734;2023-06-26T09:33:20;33.00;81.10
34574;DHT22;20809;49.594;8.734;2023-06-26T09:36:21;34.10;79.00
34574;DHT22;20809;49.594;8.734;2023-06-26T09:39:22;35.00;76.80
34574;DHT22;20809;49.594;8.734;2023-06-26T09:42:23;36.00;75.60
34574;DHT22;20809;49.594;8.734;2023-06-26T09:45:24;36.10;73.80
34574;DHT22;20809;49.594;8.734;2023-06-26T09:48:25;35.90;70.60
34574;DHT22;20809;49.594;8.734;2023-06-26T09:51:26;35.40;70.50
34574;DHT22;20809;49.594;8.734;2023-06-26T09:54:27;34.70;71.70
34574;DHT22;20809;49.594;8.734;2023-06-26T09:57:30;34.10;71.30
34574;DHT22;20809;49.594;8.734;2023-06-26T10:00:33;33.70;73.30
34574;DHT22;20809;49.594;8.734;2023-06-26T10:03:34;33.70;72.80
34574;DHT22;20809;49.594;8.734;2023-06-26T10:06:46;33.50;73.70
34574;DHT22;20809;49.594;8.734;2023-06-26T10:09:50;33.70;74.20
34574;DHT22;20809;49.594;8.734;2023-06-26T10:12:59;33.80;74.40
34574;DHT22;20809;49.594;8.734;2023-06-26T10:16:01;34.00;74.10
34574;DHT22;20809;49.594;8.734;2023-06-26T10:19:06;34.10;74.80
34574;DHT22;20809;49.594;8.734;2023-06-26T10:22:09;34.10;73.50
34574;DHT22;20809;49.594;8.734;2023-06-26T10:25:14;34.30;72.20
34574;DHT22;20809;49.594;8.734;2023-06-26T10:28:18;34.50;72.00
34574;DHT22;20809;49.594;8.734;2023-06-26T10:31:23;34.50;70.90
34574;DHT22;20809;49.594;8.734;2023-06-26T10:34:24;34.40;72.00
34574;DHT22;20809;49.594;8.734;2023-06-26T10:37:45;34.30;72.80
34574;DHT22;20809;49.594;8.734;2023-06-26T10:40:47;34.20;72.40
34574;DHT22;20809;49.594;8.734;2023-06-26T10:43:52;33.60;72.70
34574;DHT22;20809;49.594;8.734;2023-06-26T10:47:06;33.20;74.20
34574;DHT22;20809;49.594;8.734;2023-06-26T10:50:27;33.20;73.70
34574;DHT22;20809;49.594;8.734;2023-06-26T10:53:28;33.40;73.80
34574;DHT22;20809;49.594;8.734;2023-06-26T10:59:45;32.60;77.30
34574;DHT22;20809;49.594;8.734;2023-06-26T11:02:50;32.90;77.20
34574;DHT22;20809;49.594;8.734;2023-06-26T11:06:09;32.70;76.70
34574;DHT22;20809;49.594;8.734;2023-06-26T11:09:13;32.40;77.50
34574;DHT22;20809;49.594;8.734;2023-06-26T11:12:14;32.50;77.60
34574;DHT22;20809;49.594;8.734;2023-06-26T11:15:34;32.80;77.90
34574;DHT22;20809;49.594;8.734;2023-06-26T11:18:38;33.20;76.70
34574;DHT22;20809;49.594;8.734;2023-06-26T11:21:38;33.30;76.20
34574;DHT22;20809;49.594;8.734;2023-06-26T11:24:39;33.40;75.10
34574;DHT22;20809;49.594;8.734;2023-06-26T11:27:42;33.20;75.80
34574;DHT22;20809;49.594;8.734;2023-06-26T11:30:43;32.80;76.10
34574;DHT22;20809;49.594;8.734;2023-06-26T11:33:46;32.70;77.10
34574;DHT22;20809;49.594;8.734;2023-06-26T11:36:46;32.70;76.90
34574;DHT22;20809;49.594;8.734;2023-06-26T11:39:48;32.90;77.80
34574;DHT22;20809;49.594;8.734;2023-06-26T11:42:48;33.00;77.00
34574;DHT22;20809;49.594;8.734;2023-06-26T11:45:49;33.20;76.60
34574;DHT22;20809;49.594;8.734;2023-06-26T11:48:50;33.30;76.10
34574;DHT22;20809;49.594;8.734;2023-06-26T11:51:51;33.00;76.40
34574;DHT22;20809;49.594;8.734;2023-06-26T11:54:52;32.60;77.90
34574;DHT22;20809;49.594;8.734;2023-06-26T11:57:54;32.20;78.80
34574;DHT22;20809;49.594;8.734;2023-06-26T12:00:54;32.20;79.30
34574;DHT22;20809;49.594;8.734;2023-06-26T12:04:00;32.40;78.60
34574;DHT22;20809;49.594;8.734;2023-06-26T12:07:02;32.60;79.00
34574;DHT22;20809;49.594;8.734;2023-06-26T12:10:08;33.30;78.50
34574;DHT22;20809;49.594;8.734;2023-06-26T12:13:09;33.90;76.30
34574;DHT22;20809;49.594;8.734;2023-06-26T12:16:10;33.90;73.40
34574;DHT22;20809;49.594;8.734;2023-06-26T12:19:11;33.40;75.80
34574;DHT22;20809;49.594;8.734;2023-06-26T12:22:11;33.00;75.80
34574;DHT22;20809;49.594;8.734;2023-06-26T12:25:12;32.70;76.30
34574;DHT22;20809;49.594;8.734;2023-06-26T12:28:17;32.50;77.20
34574;DHT22;20809;49.594;8.734;2023-06-26T12:31:20;32.80;76.20
34574;DHT22;20809;49.594;8.734;2023-06-26T12:34:33;33.10;75.20
34574;DHT22;20809;49.594;8.734;2023-06-26T12:37:37;33.40;73.90
34574;DHT22;20809;49.594;8.734;2023-06-26T12:40:47;33.70;72.00
34574;DHT22;20809;49.594;8.734;2023-06-26T12:43:48;33.90;70.90
34574;DHT22;20809;49.594;8.734;2023-06-26T12:46:54;34.20;69.40
34574;DHT22;20809;49.594;8.734;2023-06-26T12:49:55;34.00;68.50
34574;DHT22;20809;49.594;8.734;2023-06-26T12:52:56;33.90;69.80
34574;DHT22;20809;49.594;8.734;2023-06-26T12:55:57;34.00;68.20
34574;DHT22;20809;49.594;8.734;2023-06-26T12:58:57;33.90;67.00
34574;DHT22;20809;49.594;8.734;2023-06-26T13:01:58;33.90;66.10
34574;DHT22;20809;49.594;8.734;2023-06-26T13:04:59;34.10;69.00
34574;DHT22;20809;49.594;8.734;2023-06-26T13:08:00;34.20;67.90
34574;DHT22;20809;49.594;8.734;2023-06-26T13:11:00;34.10;65.60
34574;DHT22;20809;49.594;8.734;2023-06-26T13:14:01;34.10;64.30
34574;DHT22;20809;49.594;8.734;2023-06-26T13:17:02;34.00;64.80
34574;DHT22;20809;49.594;8.734;2023-06-26T13:20:03;34.20;65.50
34574;DHT22;20809;49.594;8.734;2023-06-26T13:23:05;34.60;65.70
34574;DHT22;20809;49.594;8.734;2023-06-26T13:26:25;34.60;64.90
34574;DHT22;20809;49.594;8.734;2023-06-26T13:29:34;34.40;62.00
34574;DHT22;20809;49.594;8.734;2023-06-26T13:32:35;34.00;62.00
34574;DHT22;20809;49.594;8.734;2023-06-26T13:35:35;33.40;62.00
34574;DHT22;20809;49.594;8.734;2023-06-26T13:38:36;33.40;63.40
34574;DHT22;20809;49.594;8.734;2023-06-26T13:41:36;33.50;62.30
34574;DHT22;20809;49.594;8.734;2023-06-26T13:44:37;33.80;61.80
34574;DHT22;20809;49.594;8.734;2023-06-26T13:47:38;33.70;60.60
34574;DHT22;20809;49.594;8.734;2023-06-26T13:50:41;33.70;58.70
34574;DHT22;20809;49.594;8.734;2023-06-26T13:53:42;33.50;58.80
34574;DHT22;20809;49.594;8.734;2023-06-26T13:56:42;33.50;58.60
34574;DHT22;20809;49.594;8.734;2023-06-26T13:59:43;33.40;60.10
34574;DHT22;20809;49.594;8.734;2023-06-26T14:02:44;33.40;60.20
34574;DHT22;20809;49.594;8.734;2023-06-26T14:05:45;33.60;59.40
34574;DHT22;20809;49.594;8.734;2023-06-26T14:08:45;33.40;58.40
34574;DHT22;20809;49.594;8.734;2023-06-26T14:11:46;33.10;59.00
34574;DHT22;20809;49.594;8.734;2023-06-26T14:14:47;33.10;59.90
34574;DHT22;20809;49.594;8.734;2023-06-26T14:17:47;33.40;59.70
34574;DHT22;20809;49.594;8.734;2023-06-26T14:20:48;33.50;59.70
34574;DHT22;20809;49.594;8.734;2023-06-26T14:23:49;33.70;59.30
34574;DHT22;20809;49.594;8.734;2023-06-26T14:26:50;33.60;56.30
34574;DHT22;20809;49.594;8.734;2023-06-26T14:29:50;33.30;56.20
34574;DHT22;20809;49.594;8.734;2023-06-26T14:32:51;33.20;56.00
34574;DHT22;20809;49.594;8.734;2023-06-26T14:36:24;33.00;53.50
34574;DHT22;20809;49.594;8.734;2023-06-26T14:39:27;33.00;55.60
34574;DHT22;20809;49.594;8.734;2023-06-26T14:42:28;33.00;56.70
34574;DHT22;20809;49.594;8.734;2023-06-26T14:45:28;32.90;57.50
34574;DHT22;20809;49.594;8.734;2023-06-26T14:48:29;32.50;58.10
34574;DHT22;20809;49.594;8.734;2023-06-26T14:51:32;32.20;57.90
34574;DHT22;20809;49.594;8.734;2023-06-26T14:54:32;32.30;58.20
34574;DHT22;20809;49.594;8.734;2023-06-26T14:57:34;33.00;56.90
34574;DHT22;20809;49.594;8.734;2023-06-26T15:00:35;33.20;57.10
34574;DHT22;20809;49.594;8.734;2023-06-26T15:03:36;33.00;58.30
34574;DHT22;20809;49.594;8.734;2023-06-26T15:06:36;32.50;57.50
34574;DHT22;20809;49.594;8.734;2023-06-26T15:09:41;31.90;58.20
34574;DHT22;20809;49.594;8.734;2023-06-26T15:12:42;31.60;60.20
34574;DHT22;20809;49.594;8.734;2023-06-26T15:15:43;31.60;58.30
34574;DHT22;20809;49.594;8.734;2023-06-26T15:18:44;31.50;58.70
34574;DHT22;20809;49.594;8.734;2023-06-26T15:21:45;31.20;58.60
34574;DHT22;20809;49.594;8.734;2023-06-26T15:24:45;31.00;58.90
34574;DHT22;20809;49.594;8.734;2023-06-26T15:27:46;30.80;58.50
34574;DHT22;20809;49.594;8.734;2023-06-26T15:30:47;30.50;58.80
34574;DHT22;20809;49.594;8.734;2023-06-26T15:33:47;30.40;58.70
34574;DHT22;20809;49.594;8.734;2023-06-26T15:36:48;30.60;59.00
34574;DHT22;20809;49.594;8.734;2023-06-26T15:47:58;31.10;56.50
34574;DHT22;20809;49.594;8.734;2023-06-26T15:50:59;30.80;56.00
34574;DHT22;20809;49.594;8.734;2023-06-26T15:54:00;30.60;55.20
34574;DHT22;20809;49.594;8.734;2023-06-26T15:57:00;30.40;56.40
34574;DHT22;20809;49.594;8.734;2023-06-26T16:00:02;30.30;55.40
34574;DHT22;20809;49.594;8.734;2023-06-26T16:03:03;30.60;55.40
34574;DHT22;20809;49.594;8.734;2023-06-26T16:06:05;30.80;55.60
34574;DHT22;20809;49.594;8.734;2023-06-26T16:09:06;30.80;54.30
34574;DHT22;20809;49.594;8.734;2023-06-26T16:12:25;30.50;54.30
34574;DHT22;20809;49.594;8.734;2023-06-26T16:15:50;30.10;54.10
34574;DHT22;20809;49.594;8.734;2023-06-26T16:18:50;29.90;53.40
34574;DHT22;20809;49.594;8.734;2023-06-26T16:21:51;29.70;53.70
34574;DHT22;20809;49.594;8.734;2023-06-26T16:24:52;29.60;52.30
34574;DHT22;20809;49.594;8.734;2023-06-26T16:27:53;29.60;53.30
34574;DHT22;20809;49.594;8.734;2023-06-26T16:30:54;29.60;54.60
34574;DHT22;20809;49.594;8.734;2023-06-26T16:33:54;29.80;55.00
34574;DHT22;20809;49.594;8.734;2023-06-26T16:36:55;29.80;54.40
34574;DHT22;20809;49.594;8.734;2023-06-26T16:39:56;29.80;53.70
34574;DHT22;20809;49.594;8.734;2023-06-26T16:42:57;29.80;53.00
34574;DHT22;20809;49.594;8.734;2023-06-26T16:45:57;29.70;51.80
34574;DHT22;20809;49.594;8.734;2023-06-26T16:48:58;29.30;51.70
34574;DHT22;20809;49.594;8.734;2023-06-26T16:51:58;29.20;52.50
34574;DHT22;20809;49.594;8.734;2023-06-26T16:55:01;29.30;53.00
34574;DHT22;20809;49.594;8.734;2023-06-26T16:58:01;29.40;51.60
34574;DHT22;20809;49.594;8.734;2023-06-26T17:01:02;29.40;51.70
34574;DHT22;20809;49.594;8.734;2023-06-26T17:04:03;29.50;52.50
34574;DHT22;20809;49.594;8.734;2023-06-26T17:07:03;29.50;53.60
34574;DHT22;20809;49.594;8.734;2023-06-26T17:10:05;29.50;53.60
34574;DHT22;20809;49.594;8.734;2023-06-26T17:13:54;29.40;52.70
34574;DHT22;20809;49.594;8.734;2023-06-26T17:21:01;28.80;53.40
34574;DHT22;20809;49.594;8.734;2023-06-26T17:24:11;28.40;54.00
34574;DHT22;20809;49.594;8.734;2023-06-26T17:31:31;28.30;55.00
34574;DHT22;20809;49.594;8.734;2023-06-26T17:34:32;28.10;59.10
34574;DHT22;20809;49.594;8.734;2023-06-26T17:37:32;28.40;60.20
34574;DHT22;20809;49.594;8.734;2023-06-26T17:40:33;28.70;61.80
34574;DHT22;20809;49.594;8.734;2023-06-26T17:43:34;29.10;62.00
34574;DHT22;20809;49.594;8.734;2023-06-26T17:46:35;29.20;62.40
34574;DHT22;20809;49.594;8.734;2023-06-26T17:49:35;28.70;63.70
34574;DHT22;20809;49.594;8.734;2023-06-26T17:52:36;28.00;64.90
34574;DHT22;20809;49.594;8.734;2023-06-26T17:55:37;27.60;66.60
34574;DHT22;20809;49.594;8.734;2023-06-26T17:58:38;27.20;67.10
34574;DHT22;20809;49.594;8.734;2023-06-26T18:01:38;26.80;67.70
34574;DHT22;20809;49.594;8.734;2023-06-26T18:04:39;26.30;68.50
34574;DHT22;20809;49.594;8.734;2023-06-26T18:07:40;26.00;70.00
34574;DHT22;20809;49.594;8.734;2023-06-26T18:10:41;25.80;70.20
34574;DHT22;20809;49.594;8.734;2023-06-26T18:13:42;25.40;70.30
34574;DHT22;20809;49.594;8.734;2023-06-26T18:16:43;25.10;71.20
34574;DHT22;20809;49.594;8.734;2023-06-26T18:20:18;25.00;72.20
34574;DHT22;20809;49.594;8.734;2023-06-26T18:23:19;24.90;72.30
34574;DHT22;20809;49.594;8.734;2023-06-26T18:26:20;24.60;73.30
34574;DHT22;20809;49.594;8.734;2023-06-26T18:29:21;24.50;73.50
34574;DHT22;20809;49.594;8.734;2023-06-26T18:32:21;24.50;73.80
34574;DHT22;20809;49.594;8.734;2023-06-26T18:35:22;24.30;73.60
34574;DHT22;20809;49.594;8.734;2023-06-26T18:38:23;24.30;73.70
34574;DHT22;20809;49.594;8.734;2023-06-26T18:41:23;24.20;72.30
34574;DHT22;20809;49.594;8.734;2023-06-26T18:44:25;24.10;72.90
34574;DHT22;20809;49.594;8.734;2023-06-26T18:47:25;23.90;73.00
34574;DHT22;20809;49.594;8.734;2023-06-26T18:50:26;23.80;73.60
34574;DHT22;20809;49.594;8.734;2023-06-26T18:53:28;23.80;73.50
34574;DHT22;20809;49.594;8.734;2023-06-26T18:56:33;23.70;73.70
34574;DHT22;20809;49.594;8.734;2023-06-26T18:59:35;23.60;73.90
34574;DHT22;20809;49.594;8.734;2023-06-26T19:02:36;23.50;73.70
34574;DHT22;20809;49.594;8.734;2023-06-26T19:05:37;23.40;73.80
34574;DHT22;20809;49.594;8.734;2023-06-26T19:08:38;23.30;74.10
34574;DHT22;20809;49.594;8.734;2023-06-26T19:11:39;23.20;74.40
34574;DHT22;20809;49.594;8.734;2023-06-26T19:14:41;23.20;74.40
34574;DHT22;20809;49.594;8.734;2023-06-26T19:17:42;23.00;74.30
34574;DHT22;20809;49.594;8.734;2023-06-26T19:20:43;22.90;74.90
34574;DHT22;20809;49.594;8.734;2023-06-26T19:23:45;22.90;75.00
34574;DHT22;20809;49.594;8.734;2023-06-26T19:26:46;22.80;75.50
34574;DHT22;20809;49.594;8.734;2023-06-26T19:29:47;22.70;75.70
34574;DHT22;20809;49.594;8.734;2023-06-26T19:32:48;22.60;76.10
34574;DHT22;20809;49.594;8.734;2023-06-26T19:35:50;22.60;76.20
34574;DHT22;20809;49.594;8.734;2023-06-26T19:38:51;22.50;76.40
34574;DHT22;20809;49.594;8.734;2023-06-26T19:41:52;22.50;76.20
34574;DHT22;20809;49.594;8.734;2023-06-26T19:44:53;22.40;76.50
34574;DHT22;20809;49.594;8.734;2023-06-26T19:47:55;22.40;76.20